createdAt,value
2023-03-25T00:00:18.881Z,98976.81
2023-03-25T00:02:48.198Z,98968.03
2023-03-25T00:05:17.212Z,98970.38
2023-03-25T00:07:45.184Z,98977.72
2023-03-25T00:10:13.708Z,98973.13
2023-03-25T00:12:40.806Z,98969.56
2023-03-25T00:15:09.314Z,98966.66
2023-03-25T00:17:36.825Z,98969.19
2023-03-25T00:20:07.355Z,98964.09
2023-03-25T00:22:33.957Z,98974.03
2023-03-25T00:25:00.540Z,98972.44
2023-03-25T00:27:27.092Z,98977.75
2023-03-25T00:29:53.723Z,98984.00
2023-03-25T00:32:21.294Z,98981.09
2023-03-25T00:34:47.911Z,98978.75
2023-03-25T00:37:17.694Z,98979.91
2023-03-25T00:39:45.757Z,98976.44
2023-03-25T00:42:16.378Z,98971.69
2023-03-25T00:44:42.938Z,98980.75
2023-03-25T00:47:11.652Z,98971.41
2023-03-25T00:49:38.506Z,98973.44
2023-03-25T00:52:05.163Z,98987.69
2023-03-25T00:54:34.195Z,98974.28
2023-03-25T00:57:01.011Z,98968.59
2023-03-25T00:59:27.712Z,98980.56
2023-03-25T01:01:56.253Z,98979.31
2023-03-25T01:04:23.024Z,98974.72
2023-03-25T01:06:52.076Z,98976.47
2023-03-25T01:09:19.967Z,98980.50
2023-03-25T01:11:48.104Z,98975.28
2023-03-25T01:14:18.428Z,98976.69
2023-03-25T01:16:45.710Z,98980.72
2023-03-25T01:19:13.034Z,98981.41
2023-03-25T01:21:40.250Z,98983.47
2023-03-25T01:24:08.311Z,98983.31
2023-03-25T01:26:34.986Z,98995.72
2023-03-25T01:29:01.860Z,98995.87
2023-03-25T01:31:30.419Z,98995.28
2023-03-25T01:33:57.878Z,98994.37
2023-03-25T01:36:25.783Z,99004.03
2023-03-25T01:38:52.406Z,98993.41
2023-03-25T01:41:19.516Z,99001.59
2023-03-25T01:44:08.910Z,99002.41
2023-03-25T01:46:39.289Z,98996.28
2023-03-25T01:49:10.015Z,99000.84
2023-03-25T01:51:40.711Z,99005.69
2023-03-25T01:54:08.200Z,98997.53
2023-03-25T01:56:41.259Z,98997.06
2023-03-25T01:59:11.180Z,99002.94
2023-03-25T02:01:37.846Z,98994.97
2023-03-25T02:04:10.072Z,99003.06
2023-03-25T02:06:50.963Z,98989.31
2023-03-25T02:09:20.058Z,99002.66
2023-03-25T02:11:47.885Z,99003.53
2023-03-25T02:14:22.360Z,98991.44
2023-03-25T02:17:07.742Z,98996.53
2023-03-25T02:20:08.446Z,99006.41
2023-03-25T02:22:56.612Z,98996.28
2023-03-25T02:25:36.244Z,98993.34
2023-03-25T02:28:12.153Z,98999.81
2023-03-25T02:30:41.768Z,99003.41
2023-03-25T02:33:32.032Z,99003.81
2023-03-25T02:36:31.350Z,98997.34
2023-03-25T02:39:33.811Z,99000.38
2023-03-25T02:42:18.114Z,98991.66
2023-03-25T02:45:10.709Z,98995.91
2023-03-25T02:47:51.990Z,98985.97
2023-03-25T02:50:27.529Z,98994.13
2023-03-25T02:52:59.934Z,98984.28
2023-03-25T02:55:30.594Z,98996.78
2023-03-25T02:58:00.271Z,98988.94
2023-03-25T03:00:28.916Z,98999.66
2023-03-25T03:03:01.451Z,98987.87
2023-03-25T03:05:31.250Z,99006.06
2023-03-25T03:08:22.801Z,99006.19
2023-03-25T03:11:07.341Z,99007.59
2023-03-25T03:14:18.816Z,99007.31
2023-03-25T03:16:58.550Z,99002.87
2023-03-25T03:19:55.682Z,99005.41
2023-03-25T03:22:34.238Z,99005.25
2023-03-25T03:25:22.861Z,99008.34
2023-03-25T03:28:36.002Z,99014.31
2023-03-25T03:31:48.770Z,99018.87
2023-03-25T03:34:26.502Z,99027.75
2023-03-25T03:36:57.898Z,99022.22
2023-03-25T03:39:31.678Z,99034.44
2023-03-25T03:42:08.074Z,99039.03
2023-03-25T03:44:39.052Z,99043.56
2023-03-25T03:47:18.360Z,99047.50
2023-03-25T03:49:57.004Z,99043.19
2023-03-25T03:52:47.242Z,99049.28
2023-03-25T03:55:21.698Z,99054.34
2023-03-25T03:57:56.262Z,99067.41
2023-03-25T04:00:28.829Z,99066.53
2023-03-25T04:03:14.540Z,99069.28
2023-03-25T04:05:48.912Z,99073.59
2023-03-25T04:08:37.750Z,99077.75
2023-03-25T04:11:21.335Z,99081.38
2023-03-25T04:13:52.210Z,99084.59
2023-03-25T04:16:20.234Z,99077.91
2023-03-25T04:18:48.287Z,99091.47
2023-03-25T04:21:25.927Z,99091.97
2023-03-25T04:23:52.812Z,99088.88
2023-03-25T04:26:19.900Z,99098.56
2023-03-25T04:28:47.243Z,99095.97
2023-03-25T04:31:17.702Z,99098.09
2023-03-25T04:33:48.721Z,99099.34
2023-03-25T04:36:15.611Z,99096.31
2023-03-25T04:38:45.809Z,99094.84
2023-03-25T04:41:14.071Z,99100.19
2023-03-25T04:43:41.891Z,99107.44
2023-03-25T04:46:13.654Z,99110.47
2023-03-25T04:48:41.705Z,99111.78
2023-03-25T04:51:10.367Z,99115.34
2023-03-25T04:53:37.465Z,99114.38
2023-03-25T04:56:05.121Z,99121.81
2023-03-25T04:58:32.476Z,99122.00
2023-03-25T05:01:06.311Z,99121.28
2023-03-25T05:03:33.759Z,99131.16
2023-03-25T05:06:01.975Z,99133.72
2023-03-25T05:08:29.336Z,99135.19
2023-03-25T05:10:56.139Z,99136.97
2023-03-25T05:13:22.848Z,99137.44
2023-03-25T05:15:56.795Z,99140.97
2023-03-25T05:18:23.578Z,99137.75
2023-03-25T05:20:51.098Z,99149.22
2023-03-25T05:23:19.600Z,99148.56
2023-03-25T05:25:48.142Z,99150.88
2023-03-25T05:28:15.255Z,99151.00
2023-03-25T05:30:45.481Z,99156.66
2023-03-25T05:33:18.023Z,99152.12
2023-03-25T05:35:45.143Z,99162.06
2023-03-25T05:38:14.560Z,99148.19
2023-03-25T05:40:42.900Z,99150.47
2023-03-25T05:43:23.264Z,99148.53
2023-03-25T05:45:50.125Z,99148.91
2023-03-25T05:48:16.994Z,99143.84
2023-03-25T05:50:43.652Z,99139.37
2023-03-25T05:53:15.547Z,99146.97
2023-03-25T05:55:42.379Z,99144.72
2023-03-25T05:58:09.228Z,99148.56
2023-03-25T06:00:37.258Z,99146.50
2023-03-25T06:03:07.082Z,99158.53
2023-03-25T06:05:33.883Z,99149.59
2023-03-25T06:08:01.886Z,99157.66
2023-03-25T06:40:02.337Z,99161.50
2023-03-25T06:42:29.441Z,99159.72
2023-03-25T06:47:31.365Z,99166.28
2023-03-25T06:49:57.911Z,99169.25
2023-03-25T06:52:24.584Z,99169.87
2023-03-25T06:54:51.343Z,99183.66
2023-03-25T06:57:18.098Z,99176.91
2023-03-25T06:59:44.647Z,99187.97
2023-03-25T07:02:19.179Z,99174.59
2023-03-25T07:05:05.284Z,99185.09
2023-03-25T07:07:31.880Z,99187.84
2023-03-25T07:09:58.433Z,99190.59
2023-03-25T07:12:25.315Z,99187.53
2023-03-25T07:14:55.984Z,99194.44
2023-03-25T07:17:23.521Z,99191.41
2023-03-25T07:19:50.441Z,99207.38
2023-03-25T07:22:17.186Z,99205.31
2023-03-25T07:24:44.346Z,99205.63
2023-03-25T07:27:14.945Z,99216.28
2023-03-25T07:29:41.614Z,99206.22
2023-03-25T07:32:08.290Z,99205.88
2023-03-25T07:34:35.510Z,99204.47
2023-03-25T07:37:02.146Z,99214.81
2023-03-25T07:39:28.715Z,99216.72
2023-03-25T07:41:55.363Z,99216.53
2023-03-25T07:44:21.977Z,99217.31
2023-03-25T07:46:49.285Z,99210.16
2023-03-25T07:49:17.066Z,99213.12
2023-03-25T07:51:44.691Z,99218.53
2023-03-25T07:54:11.623Z,99210.53
2023-03-25T07:56:38.681Z,99215.78
2023-03-25T07:59:05.610Z,99213.50
2023-03-25T08:01:32.243Z,99208.56
2023-03-25T08:03:58.856Z,99212.06
2023-03-25T08:06:25.552Z,99207.72
2023-03-25T08:08:54.452Z,99217.72
2023-03-25T08:11:22.071Z,99220.41
2023-03-25T08:13:48.754Z,99210.00
2023-03-25T08:16:15.570Z,99218.47
2023-03-25T08:18:45.110Z,99219.31
2023-03-25T08:21:13.088Z,99219.84
2023-03-25T08:23:39.797Z,99215.13
2023-03-25T08:26:06.802Z,99209.31
2023-03-25T08:28:33.551Z,99209.03
2023-03-25T08:31:02.403Z,99207.22
2023-03-25T08:33:34.392Z,99202.88
2023-03-25T08:36:01.851Z,99215.84
2023-03-25T08:38:34.291Z,99207.25
2023-03-25T08:41:01.977Z,99192.84
2023-03-25T08:43:28.607Z,99200.41
2023-03-25T08:45:55.460Z,99199.22
2023-03-25T08:48:23.149Z,99197.78
2023-03-25T08:50:49.704Z,99202.66
2023-03-25T08:53:16.531Z,99187.19
2023-03-25T08:55:43.099Z,99193.06
2023-03-25T08:58:09.663Z,99191.34
2023-03-25T09:00:37.869Z,99196.91
2023-03-25T09:03:05.137Z,99184.84
2023-03-25T09:05:37.597Z,99195.81
2023-03-25T09:08:04.645Z,99193.41
2023-03-25T09:10:31.445Z,99182.06
2023-03-25T09:12:58.056Z,99186.25
2023-03-25T09:15:24.655Z,99181.28
2023-03-25T09:17:51.215Z,99189.59
2023-03-25T09:20:18.754Z,99193.13
2023-03-25T09:22:45.479Z,99194.41
2023-03-25T09:25:12.255Z,99194.41
2023-03-25T09:27:38.860Z,99199.22
2023-03-25T09:30:06.834Z,99184.75
2023-03-25T09:32:34.125Z,99194.81
2023-03-25T09:35:00.852Z,99190.88
2023-03-25T09:37:27.427Z,99180.56
2023-03-25T09:39:54.089Z,99184.66
2023-03-25T09:42:47.727Z,99188.75
2023-03-25T09:45:36.426Z,99181.78
2023-03-25T09:48:29.291Z,99191.00
2023-03-25T09:51:01.015Z,99205.09
2023-03-25T09:53:30.562Z,99195.81
2023-03-25T09:55:58.201Z,99200.09
2023-03-25T09:58:34.560Z,99200.16
2023-03-25T10:01:15.515Z,99192.75
2023-03-25T10:04:19.545Z,99201.94
2023-03-25T10:07:21.124Z,99196.19
2023-03-25T10:10:18.793Z,99194.78
2023-03-25T10:13:09.878Z,99197.78
2023-03-25T10:15:53.151Z,99201.94
2023-03-25T10:18:22.620Z,99208.75
2023-03-25T10:21:07.198Z,99197.38
2023-03-25T10:24:15.774Z,99196.03
2023-03-25T10:26:55.590Z,99195.69
2023-03-25T10:29:31.703Z,99203.56
2023-03-25T10:32:03.566Z,99205.34
2023-03-25T10:34:38.281Z,99198.56
2023-03-25T10:37:10.283Z,99196.94
2023-03-25T10:39:40.039Z,99193.81
2023-03-25T10:42:21.602Z,99203.09
2023-03-25T10:44:48.538Z,99198.78
2023-03-25T10:47:33.277Z,99195.81
2023-03-25T10:50:00.393Z,99194.03
2023-03-25T10:52:27.370Z,99196.09
2023-03-25T10:54:56.420Z,99193.78
2023-03-25T10:57:28.017Z,99192.91
2023-03-25T11:00:18.325Z,99193.09
2023-03-25T11:02:46.421Z,99197.09
2023-03-25T11:05:18.924Z,99191.03
2023-03-25T11:07:53.172Z,99192.53
2023-03-25T11:10:29.262Z,99188.16
2023-03-25T11:12:58.460Z,99195.09
2023-03-25T11:15:30.623Z,99195.00
2023-03-25T11:18:04.932Z,99199.47
2023-03-25T11:20:40.333Z,99192.25
2023-03-25T11:23:19.231Z,99202.03
2023-03-25T11:25:46.296Z,99199.94
2023-03-25T11:28:44.563Z,99207.09
2023-03-25T11:31:11.295Z,99204.69
2023-03-25T11:33:39.161Z,99200.06
2023-03-25T11:36:21.839Z,99196.88
2023-03-25T11:38:56.631Z,99198.09
2023-03-25T11:41:24.295Z,99193.94
2023-03-25T11:43:50.972Z,99202.78
2023-03-25T11:46:21.901Z,99219.00
2023-03-25T11:48:50.225Z,99202.84
2023-03-25T11:51:24.140Z,99207.75
2023-03-25T11:54:09.497Z,99206.50
2023-03-25T11:56:40.330Z,99206.94
2023-03-25T11:59:27.020Z,99203.97
2023-03-25T12:02:19.278Z,99213.31
2023-03-25T12:05:02.833Z,99212.81
2023-03-25T12:07:30.222Z,99211.47
2023-03-25T12:09:59.309Z,99206.22
2023-03-25T12:12:38.000Z,99210.31
2023-03-25T12:15:27.009Z,99208.72
2023-03-25T12:18:05.657Z,99206.47
2023-03-25T12:21:04.718Z,99195.63
2023-03-25T12:24:18.719Z,99209.41
2023-03-25T12:27:08.299Z,99199.47
2023-03-25T12:29:40.461Z,99194.09
2023-03-25T12:32:16.115Z,99184.53
2023-03-25T12:34:54.479Z,99176.16
2023-03-25T12:37:33.096Z,99180.28
2023-03-25T12:40:24.172Z,99178.13
2023-03-25T12:43:05.285Z,99175.59
2023-03-25T12:45:34.709Z,99167.25
2023-03-25T12:48:09.874Z,99151.12
2023-03-25T12:51:09.001Z,99155.56
2023-03-25T12:53:56.820Z,99158.09
2023-03-25T12:56:23.343Z,99159.69
2023-03-25T12:59:02.417Z,99154.00
2023-03-25T13:01:49.409Z,99157.63
2023-03-25T13:04:19.722Z,99151.72
2023-03-25T13:06:51.695Z,99151.41
2023-03-25T13:09:41.597Z,99149.56
2023-03-25T13:12:14.982Z,99149.59
2023-03-25T13:15:27.845Z,99165.53
2023-03-25T13:18:12.106Z,99154.03
2023-03-25T13:20:49.529Z,99151.97
2023-03-25T13:23:23.381Z,99149.16
2023-03-25T13:25:57.661Z,99144.72
2023-03-25T13:28:38.289Z,99148.13
2023-03-25T13:31:08.389Z,99139.44
2023-03-25T13:33:40.791Z,99154.59
2023-03-25T13:36:29.637Z,99156.03
2023-03-25T13:39:21.924Z,99148.78
2023-03-25T13:41:56.840Z,99147.22
2023-03-25T13:44:35.998Z,99157.66
2023-03-25T13:47:30.327Z,99156.03
2023-03-25T13:50:20.503Z,99151.88
2023-03-25T13:52:54.136Z,99147.75
2023-03-25T13:55:26.665Z,99146.59
2023-03-25T13:58:27.042Z,99145.22
2023-03-25T14:00:56.435Z,99154.06
2023-03-25T14:03:54.823Z,99153.50
2023-03-25T14:06:24.432Z,99150.97
2023-03-25T14:09:07.838Z,99157.09
2023-03-25T14:11:46.696Z,99161.53
2023-03-25T14:14:18.177Z,99157.88
2023-03-25T14:16:49.142Z,99156.97
2023-03-25T14:19:20.578Z,99163.97
2023-03-25T14:21:50.152Z,99171.88
2023-03-25T14:24:26.370Z,99154.56
2023-03-25T14:27:00.047Z,99151.09
2023-03-25T14:29:34.422Z,99146.81
2023-03-25T14:32:17.623Z,99143.50
2023-03-25T14:34:47.235Z,99144.94
2023-03-25T14:37:26.053Z,99142.94
2023-03-25T14:39:55.133Z,99150.41
2023-03-25T14:42:21.631Z,99152.78
2023-03-25T14:44:54.457Z,99146.44
2023-03-25T14:47:34.032Z,99146.94
2023-03-25T14:50:22.237Z,99153.25
2023-03-25T14:52:52.891Z,99151.56
2023-03-25T14:55:31.814Z,99146.53
2023-03-25T14:58:02.499Z,99138.56
2023-03-25T15:00:34.195Z,99143.59
2023-03-25T15:03:11.036Z,99142.59
2023-03-25T15:05:39.693Z,99133.41
2023-03-25T15:08:06.785Z,99147.84
2023-03-25T15:10:49.830Z,99138.88
2023-03-25T15:13:32.650Z,99142.22
2023-03-25T15:16:03.613Z,99141.69
2023-03-25T15:18:36.274Z,99140.44
2023-03-25T15:21:08.574Z,99139.28
2023-03-25T15:23:49.211Z,99141.09
2023-03-25T15:26:18.765Z,99136.88
2023-03-25T15:29:07.271Z,99132.31
2023-03-25T15:31:42.407Z,99140.69
2023-03-25T15:34:32.899Z,99151.38
2023-03-25T15:37:17.956Z,99144.12
2023-03-25T15:40:02.307Z,99143.44
2023-03-25T15:42:47.409Z,99154.13
2023-03-25T15:45:51.766Z,99148.28
2023-03-25T15:48:21.066Z,99139.31
2023-03-25T15:51:39.123Z,99135.25
2023-03-25T15:54:28.006Z,99139.63
2023-03-25T15:57:01.213Z,99145.03
2023-03-25T15:59:55.601Z,99129.69
2023-03-25T16:02:37.091Z,99135.91
2023-03-25T16:05:05.080Z,99134.72
2023-03-25T16:07:34.183Z,99134.03
2023-03-25T16:10:20.884Z,99133.94
2023-03-25T16:12:50.086Z,99131.09
2023-03-25T16:15:22.710Z,99133.66
2023-03-25T16:17:50.565Z,99135.13
2023-03-25T16:20:25.924Z,99131.03
2023-03-25T16:22:59.517Z,99127.62
2023-03-25T16:25:38.251Z,99140.97
2023-03-25T16:28:17.234Z,99138.25
2023-03-25T16:33:58.678Z,99144.28
2023-03-25T16:36:25.893Z,99155.47
2023-03-25T16:38:52.909Z,99147.47
2023-03-25T16:41:19.725Z,99153.63
2023-03-25T16:43:46.423Z,99150.00
2023-03-25T16:46:15.858Z,99147.37
2023-03-25T16:48:49.250Z,99157.28
2023-03-25T16:51:36.113Z,99156.81
2023-03-25T16:54:09.709Z,99159.81
2023-03-25T16:56:40.463Z,99153.03
2023-03-25T16:59:24.784Z,99153.84
2023-03-25T17:01:55.057Z,99155.41
2023-03-25T17:04:27.613Z,99155.13
2023-03-25T17:07:01.049Z,99162.47
2023-03-25T17:09:34.402Z,99151.22
2023-03-25T17:12:06.132Z,99152.63
2023-03-25T17:14:37.221Z,99150.69
2023-03-25T17:17:22.132Z,99155.91
2023-03-25T17:19:51.582Z,99152.47
2023-03-25T17:22:28.217Z,99156.44
2023-03-25T17:25:12.310Z,99162.25
2023-03-25T17:27:40.680Z,99165.03
2023-03-25T17:30:33.630Z,99167.50
2023-03-25T17:33:18.078Z,99170.72
2023-03-25T17:35:54.325Z,99167.31
2023-03-25T17:38:27.731Z,99171.53
2023-03-25T17:41:01.520Z,99176.22
2023-03-25T17:43:31.995Z,99177.03
2023-03-25T17:46:00.649Z,99172.97
2023-03-25T17:48:28.083Z,99181.50
2023-03-25T17:50:56.993Z,99182.94
2023-03-25T17:53:24.849Z,99185.19
2023-03-25T17:55:52.143Z,99190.00
2023-03-25T17:58:21.015Z,99195.00
2023-03-25T18:00:53.085Z,99192.06
2023-03-25T18:03:23.314Z,99193.81
2023-03-25T18:05:55.704Z,99197.53
2023-03-25T18:08:28.018Z,99194.94
2023-03-25T18:10:56.307Z,99206.53
2023-03-25T18:13:26.720Z,99205.72
2023-03-25T18:15:53.985Z,99208.81
2023-03-25T18:18:26.196Z,99216.44
2023-03-25T18:20:56.005Z,99213.28
2023-03-25T18:23:23.629Z,99222.31
2023-03-25T18:25:50.647Z,99217.25
2023-03-25T18:28:17.664Z,99225.00
2023-03-25T18:30:54.117Z,99233.47
2023-03-25T18:33:21.416Z,99236.88
2023-03-25T18:35:48.158Z,99238.34
2023-03-25T18:38:17.846Z,99236.56
2023-03-25T18:40:44.958Z,99230.87
2023-03-25T18:43:11.575Z,99231.06
2023-03-25T18:45:38.291Z,99243.62
2023-03-25T18:48:05.642Z,99242.78
2023-03-25T18:50:36.556Z,99241.66
2023-03-25T18:53:04.954Z,99252.00
2023-03-25T18:55:33.071Z,99256.78
2023-03-25T18:58:04.348Z,99267.06
2023-03-25T19:00:40.861Z,99270.63
2023-03-25T19:03:07.490Z,99269.63
2023-03-25T19:05:34.071Z,99276.66
2023-03-25T19:08:01.008Z,99274.47
2023-03-25T19:10:30.390Z,99275.97
2023-03-25T19:12:57.426Z,99278.63
2023-03-25T19:15:27.640Z,99280.38
2023-03-25T19:17:58.435Z,99286.47
2023-03-25T19:20:29.363Z,99291.91
2023-03-25T19:22:56.563Z,99291.94
2023-03-25T19:25:23.127Z,99294.91
2023-03-25T19:27:50.108Z,99300.56
2023-03-25T19:30:22.156Z,99304.25
2023-03-25T19:32:51.785Z,99294.50
2023-03-25T19:35:20.137Z,99293.88
2023-03-25T19:37:56.239Z,99296.47
2023-03-25T19:40:26.284Z,99303.22
2023-03-25T19:42:54.992Z,99311.66
2023-03-25T19:45:22.743Z,99310.84
2023-03-25T19:47:49.858Z,99321.47
2023-03-25T19:50:19.116Z,99318.13
2023-03-25T19:52:49.659Z,99315.72
2023-03-25T19:55:16.631Z,99310.97
2023-03-25T19:57:44.823Z,99316.16
2023-03-25T20:00:15.627Z,99328.59
2023-03-25T20:02:44.156Z,99332.38
2023-03-25T20:05:12.271Z,99336.44
2023-03-25T20:07:40.571Z,99340.69
2023-03-25T20:10:19.086Z,99332.06
2023-03-25T20:12:48.089Z,99320.28
2023-03-25T20:15:16.639Z,99318.72
2023-03-25T20:17:43.668Z,99306.53
2023-03-25T20:20:20.535Z,99306.03
2023-03-25T20:22:48.363Z,99313.13
2023-03-25T20:25:16.211Z,99324.31
2023-03-25T20:27:43.375Z,99334.38
2023-03-25T20:30:28.957Z,99333.50
2023-03-25T20:33:24.199Z,99333.19
2023-03-25T20:35:56.369Z,99338.50
2023-03-25T20:38:23.369Z,99341.50
2023-03-25T20:40:54.316Z,99344.53
2023-03-25T20:43:21.004Z,99338.06
2023-03-25T20:45:47.542Z,99345.03
2023-03-25T20:48:14.220Z,99350.31
2023-03-25T20:50:40.877Z,99363.50
2023-03-25T20:53:07.428Z,99370.06
2023-03-25T20:55:34.057Z,99370.88
2023-03-25T20:58:00.860Z,99358.66
2023-03-25T21:00:28.071Z,99354.13
2023-03-25T21:02:55.569Z,99352.84
2023-03-25T21:05:22.364Z,99358.69
2023-03-25T21:07:49.600Z,99355.25
2023-03-25T21:10:16.448Z,99356.47
2023-03-25T21:12:44.664Z,99360.06
2023-03-25T21:15:14.899Z,99362.22
2023-03-25T21:17:42.163Z,99359.56
2023-03-25T21:20:09.861Z,99357.22
2023-03-25T21:22:43.065Z,99357.12
2023-03-25T21:25:11.296Z,99359.19
2023-03-25T21:27:39.524Z,99358.94
2023-03-25T21:30:09.664Z,99358.50
2023-03-25T21:32:37.410Z,99360.72
2023-03-25T21:35:53.567Z,99363.03
2023-03-25T21:38:48.940Z,99365.78
2023-03-25T21:41:15.546Z,99365.00
2023-03-25T21:43:42.406Z,99361.03
2023-03-25T21:46:10.327Z,99356.59
2023-03-25T21:51:20.333Z,99350.97
2023-03-25T21:53:47.499Z,99359.41
2023-03-25T21:56:17.883Z,99355.19
2023-03-25T21:58:45.218Z,99357.41
2023-03-25T22:01:14.802Z,99360.00
2023-03-25T22:03:45.415Z,99363.00
2023-03-25T22:06:18.228Z,99378.66
2023-03-25T22:08:45.813Z,99373.56
2023-03-25T22:11:21.077Z,99372.03
2023-03-25T22:13:48.979Z,99371.88
2023-03-25T22:16:17.448Z,99369.44
2023-03-25T22:18:44.510Z,99373.56
2023-03-25T22:21:24.030Z,99381.16
2023-03-25T22:23:54.883Z,99386.75
2023-03-25T22:26:23.237Z,99385.44
2023-03-25T22:29:00.593Z,99384.13
2023-03-25T22:31:32.516Z,99391.06
2023-03-25T22:34:10.843Z,99395.75
2023-03-25T22:36:49.670Z,99396.06
2023-03-25T22:39:21.050Z,99400.84
2023-03-25T22:41:47.684Z,99394.44
2023-03-25T22:44:17.033Z,99385.22
2023-03-25T22:46:44.803Z,99385.50
2023-03-25T22:49:11.459Z,99390.75
2023-03-25T22:51:38.014Z,99394.16
2023-03-25T22:54:05.350Z,99390.31
2023-03-25T22:56:35.345Z,99390.03
2023-03-25T22:59:04.106Z,99399.31
2023-03-25T23:01:31.014Z,99398.31
2023-03-25T23:06:35.512Z,99389.00
2023-03-25T23:09:04.829Z,99390.63
2023-03-25T23:11:31.737Z,99389.44
2023-03-25T23:14:06.725Z,99389.81
2023-03-25T23:16:34.781Z,99397.53
2023-03-25T23:19:10.037Z,99400.94
2023-03-25T23:21:51.763Z,99399.31
2023-03-25T23:24:38.024Z,99401.06
2023-03-25T23:27:07.312Z,99412.72
2023-03-25T23:29:39.222Z,99404.53
2023-03-25T23:32:07.348Z,99402.16
2023-03-25T23:34:40.288Z,99396.16
2023-03-25T23:37:07.692Z,99400.00
2023-03-25T23:39:35.149Z,99408.34
2023-03-25T23:42:13.612Z,99410.41
2023-03-25T23:44:45.658Z,99418.44
2023-03-25T23:47:12.250Z,99413.09
2023-03-25T23:49:38.896Z,99417.09
2023-03-25T23:52:11.123Z,99414.53
2023-03-25T23:54:39.230Z,99405.16
2023-03-25T23:57:06.063Z,99405.44
2023-03-25T23:59:47.948Z,99405.53
